URMNURML

Guest
Details From URMN - NALCHIK
To URML - UYTASH
Flight Number -
Tags generated
Created
Modified
Stats Distance 203 nm / 375 km
Max Altitude 21,500 ft / 6,553 m
Waypoints 3
Social Downloads 0
Likes 0
Share VATSIM

Download

Looking for another format? Having issues loading an existing format? Contact us
Advertisement - Login to hide

Notes

Basic altitude profile: - Ascent Rate: 1000ft/min - Ascent Speed: 87kts - Cruise Altitude: 11000ft - Cruise Speed: 140kts - Descent Rate: 1000ft/min - Descent Speed: 140kts Options: - Use NATs: yes - Use PACOTS: yes - Use low airways: yes - Use high airways: no

Route

URMN BELNI URML

ID Type Via Altitude Latitude Longitude Leg Dist Tot Dist Heading (true) Name
O URMN APT - 0 ft / 0 m 43.51285˚ 43.63658˚ - 0 nm - NALCHIK
BELNI FIX - 21,500 ft / 6,553 m 43.91972˚ 45.92028˚ 102 nm 102 nm 75° / 77° -
O URML APT - 0 ft / 0 m 42.81658˚ 47.65193˚ 100 nm 202 nm 131° / 132° UYTASH

Altitude Profile

Advertisement - Login to hide

Weather


0- 5 10 15 20 25 30 35+ Temperature / ° C

Clouds and Precipitation
Forecast for 2017-12-13 18:00 UTC. Updated 2 hours ago

Ground ~20,000 ft ~40,000 ft Winds

URMN

Details ICAO URMN (NAL)
Name NALCHIK
Region Russia
Timezone Europe/Moscow (UTC+3.0)
Stats Elevation 1,462 ft / 446 m (AMSL)
Location 43.512854° 43.636583°
Runways 1
Magnetic Variation 7.184° E

METAR

URMN 131430Z 03001MPS 0800 R24/1000 FG VV002 00/00 Q1020 R24/110060 NOSIG RMK QBB050 MT OBSC OBST OBSC QFE728

Decode

TAF

Not found

Departure Runways

ID Width Length Bearing (true) Bearing (mag) Surface Threshold Offset Overrun Length
06 138 ft / 42 m 7,256 ft / 2,212 m 62.40° 55.22° Asphalt 0 ft / 0 m 145 ft / 44 m
24 138 ft / 42 m 7,256 ft / 2,212 m 242.42° 235.24° Asphalt 0 ft / 0 m 160 ft / 49 m

URML

Details ICAO URML (MCX)
Name UYTASH
Region Russia
Timezone Europe/Moscow (UTC+3.0)
Stats Elevation 12 ft / 4 m (AMSL)
Location 42.816582° 47.651930°
Runways 2
Magnetic Variation 7.057° E

METAR

URML 131430Z 14009MPS 9999 BKN028 09/06 Q1024 R14/01//70 NOSIG RMK QFE768/1024

Decode

TAF

Not found

Destination Runways

ID Width Length Bearing (true) Bearing (mag) Surface Threshold Offset Overrun Length
14 138 ft / 42 m 8,643 ft / 2,634 m 148.10° 141.04° Concrete 0 ft / 0 m 0 ft / 0 m
14R 230 ft / 70 m 8,690 ft / 2,649 m 147.93° 140.87° Grass 0 ft / 0 m 0 ft / 0 m
32 138 ft / 42 m 8,643 ft / 2,634 m 328.11° 321.05° Concrete 0 ft / 0 m 0 ft / 0 m
32L 230 ft / 70 m 8,690 ft / 2,649 m 327.94° 320.88° Grass 0 ft / 0 m 0 ft / 0 m

Approach Navaids

Runway Type Ident Frequency Range Bearing (true) Bearing (mag) Slope Elevation
14 Localiser IHC 108.30 MHz 18 nm / 33 km 149.53° 142.47° - 12 ft / 4 m (AMSL)
14 Glidescope IHC 108.30 MHz 10 nm / 19 km 148.11° 141.05° 2.70° 12 ft / 4 m (AMSL)
32 Localiser ISM 109.90 MHz 18 nm / 33 km 324.61° 317.55° - 12 ft / 4 m (AMSL)
32 Glidescope ISM 109.90 MHz 10 nm / 19 km 328.11° 321.05° 2.70° 12 ft / 4 m (AMSL)